CheckWX is a tool to help pilots better visualize weather data.  It is not intended as a substitute for an official pre-flight weather briefing.

17:02:55 UTC

KIAH METAR
George Bush Intercontinental / Houston Airport
Houston, Texas, USA
Current

1 hour ago

KIAH 251553Z 14010KT 10SM FEW090 SCT250 14/06 A3019 RMK AO2 SLP224 T01440061
Observed
Jan-25 @ 15:53 UTC
Wind
  • 140° at 10 KTS
Visibility
10 SM
Flight Rules
VFR
Cloud Levels
  • Few at 9,000' AGL
  • Scattered at 25,000' AGL
Temperature
14°C / 57°F
Dewpoint
C / 43°F
Humidity
59%
Altimeter
30.19" Hg
Pressure
1022.32 hPa
Previous

2 hours ago

KIAH 251453Z 12008KT 10SM FEW090 SCT250 12/05 A3019 RMK AO2 SLP223 T01170050 51012
Observed
Jan-25 @ 14:53 UTC
Wind
  • 120° at 8 KTS
Visibility
10 SM
Flight Rules
VFR
Cloud Levels
  • Few at 9,000' AGL
  • Scattered at 25,000' AGL
Temperature
12°C / 54°F
Dewpoint
C / 41°F
Humidity
63%
Altimeter
30.19" Hg
Pressure
1022.32 hPa
Previous

3 hours ago

KIAH 251353Z 12005KT 10SM FEW090 SCT250 08/06 A3018 RMK AO2 SLP219 T00780056
Observed
Jan-25 @ 13:53 UTC
Wind
  • 120° at 5 KTS
Visibility
10 SM
Flight Rules
VFR
Cloud Levels
  • Few at 9,000' AGL
  • Scattered at 25,000' AGL
Temperature
C / 46°F
Dewpoint
C / 43°F
Humidity
87%
Altimeter
30.18" Hg
Pressure
1022.02 hPa